Kezdőlap
METAR-TAF:

METAR-TAF

Repülőterek :

Waseca Municipal Airport

Waseca, Minnesota, Amerikai Egyesült Államok

földrajzi szélesség: 44-04-24N, földrajzi hosszúság: 093-33-11W, magasság: 343 m

Jelenlegi meteorológiai megfigyelések

A jelentés 25 perccel ezelõtt készült, 01:55 UTC
Észak-északkeleti szél 6 kt
Hőmérséklet 18°C
Páratartalom 94%
Légköri nyomás 1009 hPa
Látótávolság: 11.3 km
Szórványos felhőzet 4900 lábon
Szórványos felhőzet 6500 lábon
Szakadozott felhőzet 7500 lábon

METAR: KACQ 270155Z AUTO 02006KT 7SM -VCTSRA SCT049 SCT065 BKN075 18/17 A2980 RMK AO2 LTG DSNT E AND S P0003

Idő: 21:20 (02:20 UTC)


TAF: hiányzik

Meteorológiai megfigyelések és előrejelzések több, mint 4000 repülőtéren (METAR és TAF jelentéseket).

A térképen piros és sárga pontok jelzik az elérhető meteorológiai állomásokat.

Mozgassa az egeret a pont fölött, hogy megjelenjen az állomás neve.

Azután kattintson az időjárási megfigyelések és előrejelzések megtekintéséhez.

A térkép megváltoztatása: kattintson a fekete keresztel jelölt zöld gombra ráközelítéshez, a vonallal jelölt zöld gombra távolításhoz, vagy a zöld nyilakra a szomszédos térképek eléréséhez.


METAR-TAF: